Terminal Aerodrome Forecast
Issued by NWS

Home | Current Version | Previous Version | Text Only | Print | Product List | Glossary On
Versions: 1 2 3 4 5 6 7 8 9 10 11 12 13 14 15 16
609
FTUS46 KPDT 271120
TAFBDN
TAF
KBDN 271120Z 2712/2812 VRB06KT P6SM SCT060 BKN200
     FM271700 30014G23KT P6SM BKN060
     FM280400 VRB05KT P6SM FEW050 SCT200=

USA.gov is the U.S. government's official web portal to all federal, state and local government web resources and services.